createdAt,value
2022-12-22T00:02:46.570Z,100273.56
2022-12-22T00:05:37.472Z,100270.66
2022-12-22T00:08:27.535Z,100271.88
2022-12-22T00:11:18.141Z,100274.28
2022-12-22T00:14:08.362Z,100275.09
2022-12-22T00:16:59.044Z,100266.72
2022-12-22T00:19:49.904Z,100252.72
2022-12-22T00:22:40.077Z,100260.63
2022-12-22T00:25:30.536Z,100251.75
2022-12-22T00:28:20.693Z,100254.53
2022-12-22T00:31:11.380Z,100260.84
2022-12-22T00:34:01.685Z,100250.88
2022-12-22T00:36:52.142Z,100240.31
2022-12-22T00:39:42.687Z,100241.56
2022-12-22T00:42:32.941Z,100250.50
2022-12-22T00:45:23.642Z,100252.75
2022-12-22T00:48:14.132Z,100241.19
2022-12-22T00:51:04.936Z,100247.72
2022-12-22T00:53:55.145Z,100240.66
2022-12-22T00:56:45.576Z,100229.28
2022-12-22T00:59:35.979Z,100231.13
2022-12-22T01:02:26.308Z,100233.56
2022-12-22T01:05:16.920Z,100227.88
2022-12-22T01:08:07.091Z,100224.22
2022-12-22T01:10:57.453Z,100224.19
2022-12-22T01:13:47.619Z,100225.00
2022-12-22T01:16:38.478Z,100226.66
2022-12-22T01:19:28.567Z,100227.47
2022-12-22T01:22:19.085Z,100222.81
2022-12-22T01:25:09.551Z,100211.41
2022-12-22T01:27:59.788Z,100200.66
2022-12-22T01:30:50.435Z,100202.28
2022-12-22T01:33:40.875Z,100204.53
2022-12-22T01:36:31.129Z,100196.59
2022-12-22T01:39:21.286Z,100189.50
2022-12-22T01:42:11.817Z,100182.59
2022-12-22T01:45:02.476Z,100188.28
2022-12-22T01:47:52.813Z,100185.66
2022-12-22T01:50:43.387Z,100182.63
2022-12-22T01:53:33.580Z,100174.91
2022-12-22T01:56:24.130Z,100171.47
2022-12-22T01:59:14.263Z,100166.81
2022-12-22T02:02:05.306Z,100169.44
2022-12-22T02:04:56.088Z,100162.00
2022-12-22T02:07:46.247Z,100161.13
2022-12-22T02:10:36.947Z,100157.47
2022-12-22T02:13:27.062Z,100158.13
2022-12-22T02:16:17.624Z,100152.03
2022-12-22T02:19:08.074Z,100149.00
2022-12-22T02:21:58.660Z,100144.31
2022-12-22T02:24:49.216Z,100144.31
2022-12-22T02:27:39.529Z,100139.03
2022-12-22T02:30:30.124Z,100132.75
2022-12-22T02:33:20.200Z,100120.94
2022-12-22T02:36:10.571Z,100112.81
2022-12-22T02:39:00.557Z,100121.56
2022-12-22T02:41:50.894Z,100115.06
2022-12-22T02:44:41.137Z,100108.53
2022-12-22T02:47:31.631Z,100103.06
2022-12-22T02:50:22.261Z,100097.78
2022-12-22T02:53:12.525Z,100094.94
2022-12-22T02:56:03.077Z,100094.72
2022-12-22T02:58:55.379Z,100091.06
2022-12-22T03:01:45.997Z,100090.66
2022-12-22T03:04:36.508Z,100091.28
2022-12-22T03:07:26.513Z,100091.88
2022-12-22T03:10:16.992Z,100085.78
2022-12-22T03:13:07.282Z,100086.59
2022-12-22T03:15:57.649Z,100080.53
2022-12-22T03:18:47.915Z,100072.38
2022-12-22T03:21:38.519Z,100071.16
2022-12-22T03:24:28.790Z,100070.16
2022-12-22T03:27:00.662Z,100066.88
2022-12-22T03:29:32.168Z,100061.00
2022-12-22T03:32:04.014Z,100061.59
2022-12-22T03:34:35.539Z,100058.16
2022-12-22T03:37:07.133Z,100061.81
2022-12-22T03:39:38.672Z,100066.69
2022-12-22T03:42:29.147Z,100059.75
2022-12-22T03:45:19.596Z,100057.53
2022-12-22T03:47:51.130Z,100053.03
2022-12-22T03:50:23.076Z,100050.41
2022-12-22T03:52:54.607Z,100040.84
2022-12-22T03:55:26.462Z,100032.91
2022-12-22T03:57:57.977Z,100031.88
2022-12-22T04:00:29.826Z,100028.22
2022-12-22T04:03:01.470Z,100022.53
2022-12-22T04:05:33.352Z,100013.56
2022-12-22T04:08:04.867Z,100004.41
2022-12-22T04:10:55.224Z,100006.25
2022-12-22T04:13:26.730Z,100003.19
2022-12-22T04:15:58.622Z,100001.13
2022-12-22T04:18:30.176Z,99991.97
2022-12-22T04:21:02.021Z,99989.94
2022-12-22T04:23:33.567Z,99993.63
2022-12-22T04:26:05.419Z,99993.19
2022-12-22T04:28:36.956Z,99993.00
2022-12-22T04:31:08.498Z,99983.44
2022-12-22T04:33:40.054Z,99984.44
2022-12-22T04:36:12.016Z,99992.59
2022-12-22T04:38:43.580Z,99993.41
2022-12-22T04:41:15.403Z,99975.09
2022-12-22T04:43:46.921Z,99982.81
2022-12-22T04:46:18.483Z,99978.50
2022-12-22T04:48:53.270Z,99975.28
2022-12-22T04:51:29.678Z,99967.34
2022-12-22T04:54:01.191Z,99971.00
2022-12-22T04:56:33.109Z,99970.75
2022-12-22T04:59:04.638Z,99965.84
2022-12-22T05:01:36.729Z,99962.34
2022-12-22T05:04:08.294Z,99963.16
2022-12-22T05:06:39.834Z,99957.84
2022-12-22T05:09:11.358Z,99952.38
2022-12-22T05:11:43.276Z,99950.53
2022-12-22T05:14:14.780Z,99954.16
2022-12-22T05:16:46.726Z,99950.28
2022-12-22T05:19:20.507Z,99936.22
2022-12-22T05:21:52.680Z,99936.44
2022-12-22T05:24:24.199Z,99932.13
2022-12-22T05:26:56.047Z,99925.41
2022-12-22T05:29:27.596Z,99925.00
2022-12-22T05:31:59.462Z,99927.66
2022-12-22T05:34:30.974Z,99929.25
2022-12-22T05:37:02.868Z,99922.53
2022-12-22T05:39:34.381Z,99919.66
2022-12-22T05:42:06.218Z,99914.53
2022-12-22T05:44:37.725Z,99909.63
2022-12-22T05:47:09.548Z,99905.94
2022-12-22T05:49:41.068Z,99903.09
2022-12-22T05:52:12.941Z,99910.03
2022-12-22T05:54:44.450Z,99670.22
2022-12-22T05:57:16.770Z,99893.13
2022-12-22T05:59:48.284Z,99894.53
2022-12-22T06:02:20.553Z,99894.13
2022-12-22T06:04:52.310Z,99892.06
2022-12-22T06:07:24.181Z,99881.66
2022-12-22T06:09:55.697Z,99880.84
2022-12-22T06:12:27.590Z,99881.22
2022-12-22T06:14:59.119Z,99879.38
2022-12-22T06:17:31.067Z,99872.25
2022-12-22T06:20:02.593Z,99871.22
2022-12-22T06:22:34.444Z,99865.47
2022-12-22T06:25:06.031Z,99857.09
2022-12-22T06:27:37.859Z,99852.81
2022-12-22T06:30:09.416Z,99856.50
2022-12-22T06:32:41.369Z,99850.97
2022-12-22T06:35:12.924Z,99848.13
2022-12-22T06:37:44.919Z,99854.88
2022-12-22T06:40:16.435Z,99846.72
2022-12-22T06:43:09.123Z,99852.59
2022-12-22T06:45:41.023Z,99847.91
2022-12-22T06:48:13.012Z,99848.72
2022-12-22T06:50:44.526Z,99850.31
2022-12-22T06:53:16.487Z,99848.06
2022-12-22T06:55:48.152Z,99838.63
2022-12-22T06:58:20.136Z,99838.09
2022-12-22T07:00:51.700Z,99840.31
2022-12-22T07:03:23.769Z,99843.78
2022-12-22T07:05:55.453Z,99846.66
2022-12-22T07:08:27.007Z,99841.50
2022-12-22T07:10:58.585Z,99837.09
2022-12-22T07:13:31.989Z,99834.00
2022-12-22T07:16:03.647Z,99823.78
2022-12-22T07:18:35.200Z,99826.84
2022-12-22T07:21:07.093Z,99825.38
2022-12-22T07:23:38.641Z,99828.25
2022-12-22T07:26:10.220Z,99826.19
2022-12-22T07:28:41.852Z,99819.66
2022-12-22T07:31:13.806Z,99825.75
2022-12-22T07:33:45.358Z,99825.97
2022-12-22T07:36:17.383Z,99829.66
2022-12-22T07:38:48.915Z,99828.41
2022-12-22T07:41:39.614Z,99824.94
2022-12-22T07:44:11.135Z,99815.78
2022-12-22T07:46:43.039Z,99815.13
2022-12-22T07:49:33.513Z,99815.34
2022-12-22T07:52:05.298Z,99806.94
2022-12-22T07:54:41.711Z,99395.09
2022-12-22T07:57:14.110Z,99798.19
2022-12-22T07:59:45.672Z,99801.44
2022-12-22T08:02:17.692Z,99796.34
2022-12-22T08:04:50.450Z,99795.84
2022-12-22T08:07:22.352Z,99789.72
2022-12-22T08:09:53.882Z,99792.59
2022-12-22T08:12:25.736Z,99800.19
2022-12-22T08:14:57.541Z,99794.22
2022-12-22T08:17:29.418Z,99783.38
2022-12-22T08:20:00.922Z,99786.03
2022-12-22T08:22:33.167Z,99777.94
2022-12-22T08:25:04.712Z,99780.81
2022-12-22T08:27:40.114Z,99785.31
2022-12-22T08:30:11.653Z,99770.13
2022-12-22T08:32:43.530Z,99772.41
2022-12-22T08:35:15.060Z,99770.56
2022-12-22T08:37:46.943Z,99771.38
2022-12-22T08:40:18.549Z,99773.00
2022-12-22T08:42:50.432Z,99768.94
2022-12-22T08:45:21.944Z,99760.94
2022-12-22T08:47:53.467Z,99759.75
2022-12-22T08:50:24.983Z,99758.63
2022-12-22T08:52:56.849Z,99755.97
2022-12-22T08:55:28.399Z,99750.69
2022-12-22T08:58:00.237Z,99757.47
2022-12-22T09:00:31.857Z,99749.19
2022-12-22T09:03:03.901Z,99745.06
2022-12-22T09:05:38.488Z,99748.97
2022-12-22T09:08:10.380Z,99737.56
2022-12-22T09:10:41.891Z,99732.84
2022-12-22T09:13:13.431Z,99731.38
2022-12-22T09:15:45.075Z,99729.59
2022-12-22T09:18:17.028Z,99734.59
2022-12-22T09:20:49.281Z,99731.16
2022-12-22T09:23:21.134Z,99727.69
2022-12-22T09:25:52.649Z,99724.66
2022-12-22T09:28:24.487Z,99722.25
2022-12-22T09:30:56.005Z,99714.88
2022-12-22T09:33:27.801Z,99718.06
2022-12-22T09:35:59.308Z,99717.25
2022-12-22T09:38:31.140Z,99710.38
2022-12-22T09:41:02.682Z,99713.78
2022-12-22T09:43:34.570Z,99707.34
2022-12-22T09:46:06.145Z,99709.06
2022-12-22T09:48:38.028Z,99696.84
2022-12-22T09:51:09.524Z,99692.69
2022-12-22T09:53:41.046Z,99694.19
2022-12-22T09:56:12.624Z,99692.78
2022-12-22T09:58:44.182Z,99687.03
2022-12-22T10:01:15.786Z,99686.00
2022-12-22T10:03:47.817Z,99692.59
2022-12-22T10:06:19.433Z,99686.84
2022-12-22T10:08:51.318Z,99678.00
2022-12-22T10:11:22.881Z,99682.00
2022-12-22T10:13:54.844Z,99675.66
2022-12-22T10:16:26.410Z,99672.69
2022-12-22T10:18:58.246Z,99674.28
2022-12-22T10:21:29.923Z,99671.66
2022-12-22T10:24:01.481Z,99668.88
2022-12-22T10:26:33.016Z,99668.66
2022-12-22T10:29:04.901Z,99666.69
2022-12-22T10:31:37.074Z,99662.88
2022-12-22T10:34:08.900Z,99652.50
2022-12-22T10:36:40.497Z,99645.91
2022-12-22T10:39:12.389Z,99654.81
2022-12-22T10:41:44.148Z,99648.47
2022-12-22T10:44:15.982Z,99637.97
2022-12-22T10:46:47.483Z,99638.13
2022-12-22T10:49:19.543Z,99634.69
2022-12-22T10:51:51.108Z,99635.84
2022-12-22T10:54:22.809Z,99633.63
2022-12-22T10:56:54.325Z,99639.63
2022-12-22T10:59:26.178Z,99635.72
2022-12-22T11:01:57.857Z,99635.03
2022-12-22T11:04:29.869Z,99631.91
2022-12-22T11:07:01.370Z,99629.13
2022-12-22T11:09:35.026Z,99625.91
2022-12-22T11:12:07.018Z,99618.19
2022-12-22T11:14:38.851Z,99615.06
2022-12-22T11:17:10.463Z,99610.56
2022-12-22T11:19:43.078Z,99501.13
2022-12-22T11:22:14.588Z,99607.78
2022-12-22T11:24:46.643Z,99605.59
2022-12-22T11:27:18.504Z,99601.09
2022-12-22T11:29:50.087Z,99603.19
2022-12-22T11:32:22.213Z,99591.41
2022-12-22T11:34:53.731Z,99598.34
2022-12-22T11:37:25.247Z,99599.03
2022-12-22T11:39:59.579Z,99599.84
2022-12-22T11:42:31.333Z,99596.16
2022-12-22T11:45:02.857Z,99591.31
2022-12-22T11:47:34.704Z,99591.19
2022-12-22T11:50:57.471Z,99592.84
2022-12-22T11:52:58.015Z,99584.03
2022-12-22T11:55:30.720Z,99587.28
2022-12-22T11:58:02.622Z,99580.47
2022-12-22T12:01:11.814Z,99589.59
2022-12-22T12:03:25.734Z,99585.41
2022-12-22T12:05:57.396Z,99583.81
2022-12-22T12:08:29.729Z,99583.56
2022-12-22T12:11:01.262Z,99591.53
2022-12-22T12:13:37.116Z,99588.50
2022-12-22T12:16:09.389Z,99583.34
2022-12-22T12:18:41.340Z,99578.94
2022-12-22T12:21:12.860Z,99589.94
2022-12-22T12:23:44.763Z,99586.31
2022-12-22T12:26:16.340Z,99579.75
2022-12-22T12:28:48.147Z,99588.63
2022-12-22T12:31:25.980Z,99577.88
2022-12-22T12:34:01.272Z,99580.78
2022-12-22T12:36:32.837Z,99578.47
2022-12-22T12:39:07.819Z,99580.06
2022-12-22T12:41:40.138Z,99584.91
2022-12-22T12:44:12.096Z,99577.19
2022-12-22T12:46:43.740Z,99573.81
2022-12-22T12:49:16.668Z,99568.03
2022-12-22T12:51:50.676Z,99574.16
2022-12-22T12:54:22.558Z,99572.53
2022-12-22T12:56:54.065Z,99578.66
2022-12-22T12:59:25.897Z,99578.75
2022-12-22T13:01:57.669Z,99580.97
2022-12-22T13:04:29.780Z,99582.81
2022-12-22T13:07:01.419Z,99572.91
2022-12-22T13:09:51.279Z,99582.81
2022-12-22T13:12:24.787Z,99587.03
2022-12-22T13:14:57.062Z,99587.38
2022-12-22T13:17:28.603Z,99588.19
2022-12-22T13:20:00.435Z,99590.72
2022-12-22T13:22:32.152Z,99587.03
2022-12-22T13:25:04.395Z,99600.31
2022-12-22T13:27:35.922Z,99588.88
2022-12-22T13:30:11.359Z,99603.88
2022-12-22T13:32:44.615Z,99606.06
2022-12-22T13:35:33.542Z,99607.13
2022-12-22T13:38:07.085Z,99608.03
2022-12-22T13:40:38.589Z,99609.97
2022-12-22T13:43:10.499Z,99618.75
2022-12-22T13:45:42.053Z,99622.78
2022-12-22T13:48:13.969Z,99616.34
2022-12-22T13:50:45.529Z,99619.00
2022-12-22T13:53:41.608Z,99621.66
2022-12-22T13:56:08.869Z,99625.22
2022-12-22T13:58:40.817Z,99627.06
2022-12-22T14:01:12.390Z,99641.28
2022-12-22T14:04:00.246Z,99637.59
2022-12-22T14:06:33.187Z,99640.81
2022-12-22T14:09:05.041Z,99641.53
2022-12-22T14:11:36.562Z,99639.34
2022-12-22T14:14:08.389Z,99643.13
2022-12-22T14:16:40.541Z,99646.50
2022-12-22T14:19:12.598Z,99661.16
2022-12-22T14:21:44.157Z,99655.63
2022-12-22T14:24:16.039Z,99666.16
2022-12-22T14:26:47.539Z,99671.47
2022-12-22T14:29:19.492Z,99669.59
2022-12-22T14:31:51.083Z,99671.34
2022-12-22T14:34:23.073Z,99673.44
2022-12-22T14:36:54.621Z,99676.91
2022-12-22T14:39:26.548Z,99675.06
2022-12-22T14:41:58.067Z,99692.84
2022-12-22T14:44:30.014Z,99687.19
2022-12-22T14:47:01.539Z,99693.06
2022-12-22T14:49:33.616Z,99697.25
2022-12-22T14:52:05.138Z,99696.19
2022-12-22T14:54:37.063Z,99698.72
2022-12-22T14:57:15.356Z,99707.72
2022-12-22T14:59:47.860Z,99712.00
2022-12-22T15:02:19.508Z,99723.53
2022-12-22T15:04:51.507Z,99725.63
2022-12-22T15:08:04.131Z,99725.84
2022-12-22T15:10:16.341Z,99728.16
2022-12-22T15:12:48.577Z,99735.91
2022-12-22T15:15:20.790Z,99735.09
2022-12-22T15:17:52.332Z,99744.31
2022-12-22T15:20:23.910Z,99749.88
2022-12-22T15:22:55.427Z,99748.25
2022-12-22T15:25:27.239Z,99750.91
2022-12-22T15:27:58.759Z,99754.84
2022-12-22T15:30:30.381Z,99755.25
2022-12-22T15:33:02.167Z,99761.59
2022-12-22T15:35:34.069Z,99765.53
2022-12-22T15:38:05.584Z,99764.50
2022-12-22T15:40:37.453Z,99782.50
2022-12-22T15:43:22.709Z,99780.88
2022-12-22T15:46:00.891Z,99790.13
2022-12-22T15:48:33.039Z,99791.38
2022-12-22T15:51:04.964Z,99788.94
2022-12-22T15:53:36.992Z,99786.28
2022-12-22T15:56:12.507Z,99787.28
2022-12-22T15:58:49.002Z,99800.56
2022-12-22T16:01:20.585Z,99813.84
2022-12-22T16:03:52.296Z,99816.16
2022-12-22T16:06:23.955Z,99814.06
2022-12-22T16:08:55.818Z,99822.28
2022-12-22T16:11:27.342Z,99821.41
2022-12-22T16:13:59.191Z,99829.72
2022-12-22T16:16:30.762Z,99838.34
2022-12-22T16:19:02.696Z,99839.41
2022-12-22T16:21:34.195Z,99835.91
2022-12-22T16:24:06.055Z,99854.94
2022-12-22T16:26:37.576Z,99851.41
2022-12-22T16:29:09.193Z,99853.47
2022-12-22T16:31:40.787Z,99867.19
2022-12-22T16:34:13.773Z,99868.59
2022-12-22T16:36:45.328Z,99874.09
2022-12-22T16:39:16.891Z,99873.69
2022-12-22T16:41:59.872Z,99868.59
2022-12-22T16:47:21.355Z,99870.81
2022-12-22T16:49:53.382Z,99880.44
2022-12-22T16:52:24.894Z,99881.56
2022-12-22T16:54:56.835Z,99889.63
2022-12-22T16:57:28.352Z,99889.94
2022-12-22T16:59:59.882Z,99883.09
2022-12-22T17:02:31.482Z,99885.19
2022-12-22T17:05:03.510Z,99893.69
2022-12-22T17:07:35.035Z,99895.81
2022-12-22T17:10:06.904Z,99907.09
2022-12-22T17:12:38.401Z,99907.38
2022-12-22T17:15:09.959Z,99911.53
2022-12-22T17:17:42.539Z,99911.59
2022-12-22T17:20:14.842Z,99916.75
2022-12-22T17:22:46.393Z,99912.31
2022-12-22T17:25:18.305Z,99917.25
2022-12-22T17:27:49.884Z,99917.09
2022-12-22T17:30:22.336Z,99919.16
2022-12-22T17:32:53.905Z,99920.56
2022-12-22T17:35:25.432Z,99919.56
2022-12-22T17:37:56.986Z,99928.09
2022-12-22T17:40:31.026Z,99926.88
2022-12-22T17:43:02.621Z,99925.25
2022-12-22T17:45:34.397Z,99930.88
2022-12-22T17:48:05.897Z,99932.88
2022-12-22T17:50:37.757Z,99943.06
2022-12-22T17:53:09.274Z,99939.38
2022-12-22T17:56:07.012Z,99934.06
2022-12-22T17:58:32.525Z,99934.50
2022-12-22T18:01:04.387Z,99941.28
2022-12-22T18:03:35.993Z,99939.00
2022-12-22T18:06:10.433Z,99951.28
2022-12-22T18:08:45.815Z,99955.16
2022-12-22T18:11:17.689Z,99948.91
2022-12-22T18:13:49.210Z,99954.38
2022-12-22T18:16:21.312Z,99953.78
2022-12-22T18:18:52.913Z,99955.91
2022-12-22T18:21:24.978Z,99962.28
2022-12-22T18:23:56.493Z,99960.06
2022-12-22T18:26:28.441Z,99966.16
2022-12-22T18:29:00.095Z,99969.03
2022-12-22T18:31:32.103Z,99961.06
2022-12-22T18:34:03.685Z,99973.50
2022-12-22T18:36:35.780Z,99967.63
2022-12-22T18:39:11.830Z,99963.25
2022-12-22T18:41:46.788Z,99970.19
2022-12-22T18:44:18.375Z,99961.19
2022-12-22T18:46:50.343Z,99970.59
2022-12-22T18:49:21.874Z,99963.91
2022-12-22T18:51:53.801Z,99976.97
2022-12-22T18:54:25.389Z,99972.78
2022-12-22T18:56:57.213Z,99964.63
2022-12-22T18:59:28.715Z,99963.81
2022-12-22T19:02:00.566Z,99974.25
2022-12-22T19:04:32.186Z,99967.75
2022-12-22T19:07:03.873Z,99967.38
2022-12-22T19:09:35.397Z,99971.69
2022-12-22T19:12:07.262Z,99972.91
2022-12-22T19:14:38.825Z,99972.31
2022-12-22T19:17:10.722Z,99976.19
2022-12-22T19:19:42.252Z,99971.09
2022-12-22T19:22:14.185Z,99979.47
2022-12-22T19:24:45.778Z,99970.72
2022-12-22T19:27:17.628Z,99975.59
2022-12-22T19:29:49.150Z,99983.16
2022-12-22T19:32:20.996Z,99979.91
2022-12-22T19:34:52.670Z,99972.16
2022-12-22T19:37:24.659Z,99975.44
2022-12-22T19:39:56.510Z,99978.72
2022-12-22T19:42:28.037Z,99970.59
2022-12-22T19:45:01.203Z,99972.63
2022-12-22T19:47:35.609Z,99961.88
2022-12-22T19:50:07.421Z,99964.13
2022-12-22T19:52:39.015Z,99960.28
2022-12-22T19:55:10.581Z,99957.41
2022-12-22T19:57:42.196Z,99955.97
2022-12-22T20:00:14.197Z,99960.84
2022-12-22T20:02:46.084Z,99959.22
2022-12-22T20:05:18.076Z,99951.47
2022-12-22T20:07:49.581Z,99954.34
2022-12-22T20:10:21.630Z,99957.78
2022-12-22T20:12:53.140Z,99952.50
2022-12-22T20:15:24.855Z,99945.38
2022-12-22T20:17:56.454Z,99945.81
2022-12-22T20:20:28.322Z,99946.19
2022-12-22T20:22:59.833Z,99955.16
2022-12-22T20:25:31.692Z,99962.47
2022-12-22T20:28:03.277Z,99960.84
2022-12-22T20:30:34.976Z,99953.94
2022-12-22T20:33:06.518Z,99957.19
2022-12-22T20:35:38.174Z,99958.81
2022-12-22T20:38:09.782Z,99960.03
2022-12-22T20:40:41.760Z,99958.59
2022-12-22T20:43:13.321Z,99959.84
2022-12-22T20:45:45.014Z,99874.91
2022-12-22T20:48:16.626Z,99958.00
2022-12-22T20:50:48.516Z,99951.09
2022-12-22T20:53:20.325Z,99955.34
2022-12-22T20:55:51.913Z,99956.97
2022-12-22T20:58:23.465Z,99954.13
2022-12-22T21:00:55.551Z,99955.75
2022-12-22T21:03:27.201Z,99961.25
2022-12-22T21:05:58.799Z,99966.53
2022-12-22T21:08:30.310Z,99955.34
2022-12-22T21:11:01.914Z,99964.53
2022-12-22T21:13:33.536Z,99963.31
2022-12-22T21:16:05.417Z,99967.59
2022-12-22T21:18:36.920Z,99969.63
2022-12-22T21:21:08.867Z,99968.00
2022-12-22T21:23:40.396Z,99960.06
2022-12-22T21:26:12.325Z,99964.34
2022-12-22T21:28:43.841Z,99959.88
2022-12-22T21:31:15.866Z,99946.66
2022-12-22T21:33:47.531Z,99956.00
2022-12-22T21:36:19.192Z,99959.88
2022-12-22T21:38:50.755Z,99961.94
2022-12-22T21:41:41.182Z,99956.84
2022-12-22T21:44:13.285Z,99968.03
2022-12-22T21:46:45.274Z,99956.03
2022-12-22T21:49:16.941Z,99958.88
2022-12-22T21:51:48.642Z,99959.47
2022-12-22T21:54:20.254Z,99960.91
2022-12-22T21:56:52.125Z,99960.09
2022-12-22T21:59:23.708Z,99954.41
2022-12-22T22:01:56.784Z,99951.16
2022-12-22T22:04:28.475Z,99949.75
2022-12-22T22:07:00.003Z,99949.13
2022-12-22T22:09:31.517Z,99951.16
2022-12-22T22:12:28.015Z,99939.19
2022-12-22T22:15:01.872Z,99932.25
2022-12-22T22:17:33.692Z,99920.28
2022-12-22T22:20:05.206Z,99921.09
2022-12-22T22:22:37.065Z,99927.19
2022-12-22T22:25:08.588Z,99928.81
2022-12-22T22:27:45.808Z,99931.25
2022-12-22T22:30:19.146Z,99934.09
2022-12-22T22:32:50.975Z,99934.28
2022-12-22T22:35:22.540Z,99936.53
2022-12-22T22:37:55.094Z,99937.34
2022-12-22T22:40:26.597Z,99931.03
2022-12-22T22:42:58.436Z,99923.94
2022-12-22T22:45:29.959Z,99930.63
2022-12-22T22:48:06.304Z,99923.72
2022-12-22T22:50:41.517Z,99918.44
2022-12-22T22:53:13.543Z,99919.84
2022-12-22T22:55:45.477Z,99915.19
2022-12-22T22:58:17.028Z,99905.00
2022-12-22T23:00:48.918Z,99896.88
2022-12-22T23:03:20.511Z,99907.25
2022-12-22T23:05:52.595Z,99912.94
2022-12-22T23:08:24.102Z,99909.28
2022-12-22T23:10:56.121Z,99907.47
2022-12-22T23:13:27.636Z,99906.03
2022-12-22T23:15:59.534Z,99901.34
2022-12-22T23:18:31.166Z,99901.97
2022-12-22T23:21:03.153Z,99887.72
2022-12-22T23:23:34.742Z,99889.16
2022-12-22T23:26:06.656Z,99889.97
2022-12-22T23:28:38.178Z,99892.22
2022-12-22T23:31:09.839Z,99892.22
2022-12-22T23:33:41.382Z,99887.72
2022-12-22T23:36:13.259Z,99885.91
2022-12-22T23:38:44.828Z,99878.19
2022-12-22T23:41:16.757Z,99883.66
2022-12-22T23:43:48.273Z,99874.72
2022-12-22T23:46:20.289Z,99874.31
2022-12-22T23:48:52.099Z,99862.13
2022-12-22T23:51:23.978Z,99867.97
2022-12-22T23:53:55.506Z,99853.53
2022-12-22T23:56:27.384Z,99853.53
2022-12-22T23:58:58.887Z,99856.38
